Mercury — 3FFC7 — position and weather

sailwx.info

Track history (hours):
 
Tides and Currents Weather Stations Pressure Air Temp Water Temp Dewpoint Dewpoint Depression Visibility Wind Speed Wind Dir Waves Ship Positions

Mercury

Operator: Royal Caribbean Cruises Ltd

Last reported at 2018-Feb-19 10:01 UTC. Time now 2018-Feb-19 10:18 UTC.
Position N 34°20' E 132°28'.

Length 199 m; draft 8 m.

Type: Cargo ship. MMSI: 371862000.

Date/timePositionNaut miles runAvg speedWind from/ knotsBaromVisibWave heightAir tempDewpointWater temp
2018-Feb-19 10:01N 34°20' E 132°28'0 0.1
2018-Feb-19 09:12N 34°20' E 132°28'0 0.0
2018-Feb-19 09:00N 34°20' E 132°28'0 0.2
2018-Feb-19 08:30N 34°20' E 132°28'2 0.2
2018-Feb-18 22:36N 34°21' E 132°29'0 0.6
2018-Feb-18 22:29N 34°21' E 132°29'1 2.3
2018-Feb-18 22:00N 34°20' E 132°28'3 6.1
2018-Feb-18 21:30N 34°20' E 132°25'4 8.5
2018-Feb-18 21:00N 34°16' E 132°21'5 9.9
2018-Feb-18 20:30N 34°12' E 132°20'612.0
2018-Feb-18 20:00N 34°06' E 132°24'713.1
2018-Feb-18 19:29N 34°01' E 132°29'510.6
2018-Feb-18 18:58N 33°58' E 132°34'612.0
2018-Feb-18 18:29N 33°53' E 132°31'714.1
2018-Feb-18 17:59N 33°47' E 132°26'714.0
2018-Feb-18 17:30N 33°42' E 132°21'1015.6
2018-Feb-18 16:52N 33°35' E 132°12'615.5
2018-Feb-18 16:30N 33°31' E 132°07'815.1
2018-Feb-18 16:00N 33°26' E 132°01'714.1
2018-Feb-18 15:30N 33°19' E 131°60'611.1
2018-Feb-18 14:56N 33°12' E 132°01'2 5.4
2018-Feb-18 14:30N 33°11' E 132°03'5 9.1
2018-Feb-18 13:56N 33°08' E 132°08'4 8.6
2018-Feb-18 13:29N 33°07' E 132°13'1211.3
2018-Feb-18 12:24N 32°55' E 132°18'22414.1
2018-Feb-17 20:28N 33°29' E 136°43'8916.8
2018-Feb-17 15:11N 34°12' E 138°16'813.2
2018-Feb-17 14:36N 34°16' E 138°24'312.5
2018-Feb-17 14:24N 34°17' E 138°27'612.4
2018-Feb-17 13:56N 34°20' E 138°33'612.1
2018-Feb-17 13:29N 34°23' E 138°39'612.3
2018-Feb-17 13:00N 34°25' E 138°45'611.7
2018-Feb-17 12:27N 34°28' E 138°52'512.0
2018-Feb-17 12:00N 34°31' E 138°58'612.0
2018-Feb-17 11:30N 34°34' E 139°04'713.7
2018-Feb-17 11:00N 34°37' E 139°11'713.8
2018-Feb-17 10:30N 34°37' E 139°20'713.6
2018-Feb-17 10:00N 34°37' E 139°28'714.4
2018-Feb-17 09:30N 34°43' E 139°33'815.9
2018-Feb-17 09:00N 34°50' E 139°37'816.6
2018-Feb-17 08:30N 34°58' E 139°40'816.9
2018-Feb-17 08:01N 35°06' E 139°43'613.0
2018-Feb-17 07:31N 35°12' E 139°46'510.9
2018-Feb-17 07:00N 35°18' E 139°44'612.2
2018-Feb-17 06:30N 35°23' E 139°42'5 9.1
2018-Feb-17 06:01N 35°28' E 139°42'1 1.4
2018-Feb-17 05:30N 35°28' E 139°41'0 0.0
2018-Feb-17 05:00N 35°28' E 139°41'0 0.0
2018-Feb-17 04:29N 35°28' E 139°41'0 0.0
2018-Feb-17 03:59N 35°28' E 139°41'0 0.0
2018-Feb-17 03:29N 35°28' E 139°41'0 0.0
2018-Feb-17 02:59N 35°28' E 139°41'0 0.0
2018-Feb-17 02:29N 35°28' E 139°41'0 0.0
2018-Feb-17 01:59N 35°28' E 139°41'0 0.0
2018-Feb-17 01:29N 35°28' E 139°41'0 0.0
2018-Feb-17 00:59N 35°28' E 139°41'0 0.0
2018-Feb-17 00:29N 35°28' E 139°41'0 0.0
2018-Feb-16 23:59N 35°28' E 139°41'0 0.0
2018-Feb-16 23:29N 35°28' E 139°41'0 0.0
2018-Feb-16 22:59N 35°28' E 139°41'0 0.0
2018-Feb-16 22:29N 35°28' E 139°41'0 0.0
2018-Feb-16 21:59N 35°28' E 139°41'0 0.0
2018-Feb-16 21:29N 35°28' E 139°41'0 0.0
2018-Feb-16 20:59N 35°28' E 139°41'0 0.0
2018-Feb-16 20:29N 35°28' E 139°41'0 0.0
2018-Feb-16 19:59N 35°28' E 139°41'0 0.0
2018-Feb-16 19:29N 35°28' E 139°41'0 0.0
2018-Feb-16 18:59N 35°28' E 139°41'0 0.0
2018-Feb-16 18:29N 35°28' E 139°41'0 0.0
2018-Feb-16 17:59N 35°28' E 139°41'0 0.0
2018-Feb-16 17:29N 35°28' E 139°41'0 0.0
2018-Feb-16 16:59N 35°28' E 139°41'0 0.0
2018-Feb-16 16:23N 35°28' E 139°41'0 0.0
2018-Feb-16 15:59N 35°28' E 139°41'0 0.0
2018-Feb-16 15:30N 35°28' E 139°41'0 0.0
2018-Feb-16 14:59N 35°28' E 139°41'0 0.0
2018-Feb-16 14:29N 35°28' E 139°41'0 0.0
2018-Feb-16 13:59N 35°28' E 139°41'0 0.0
2018-Feb-16 13:29N 35°28' E 139°41'0 0.0
2018-Feb-16 12:59N 35°28' E 139°41'0 0.0
2018-Feb-16 12:29N 35°28' E 139°41'0 0.0
2018-Feb-16 11:59N 35°28' E 139°41'0 0.0
2018-Feb-16 11:29N 35°28' E 139°41'0 0.0
2018-Feb-16 10:59N 35°28' E 139°41'0 0.0
2018-Feb-16 10:26N 35°28' E 139°41'0 0.0
2018-Feb-16 09:59N 35°28' E 139°41'0 0.0
2018-Feb-16 09:29N 35°28' E 139°41'0 0.0
2018-Feb-16 08:59N 35°28' E 139°41'0 0.0
2018-Feb-16 08:29N 35°28' E 139°41'0 0.0
2018-Feb-16 07:59N 35°28' E 139°41'0 0.0
2018-Feb-16 07:29N 35°28' E 139°41'0 0.0
2018-Feb-16 06:59N 35°28' E 139°41'0 0.0
2018-Feb-16 06:29N 35°28' E 139°41'0 0.0
2018-Feb-16 05:59N 35°28' E 139°41'0 0.0
2018-Feb-16 05:29N 35°28' E 139°41'1 1.7
2018-Feb-16 05:00N 35°28' E 139°42'3 5.7
2018-Feb-16 04:30N 35°26' E 139°45'2 4.5
2018-Feb-16 04:00N 35°24' E 139°46'612.3
2018-Feb-16 03:30N 35°19' E 139°44'612.6
2018-Feb-16 03:00N 35°13' E 139°47'5 9.0
2018-Feb-16 02:30N 35°08' E 139°47'3 6.7
2018-Feb-16 02:00N 35°05' E 139°45'5 9.5
2018-Feb-16 01:30N 35°01' E 139°43'611.3
2018-Feb-16 01:00N 34°55' E 139°41'611.4
2018-Feb-16 00:30N 34°50' E 139°39'611.1
2018-Feb-16 00:00N 34°45' E 139°37'4 7.9
2018-Feb-15 23:30N 34°41' E 139°34'713.4
2018-Feb-15 22:59N 34°37' E 139°28'713.9
2018-Feb-15 22:30N 34°37' E 139°20'713.8
2018-Feb-15 22:00N 34°35' E 139°11'714.3
2018-Feb-15 21:30N 34°33' E 139°03'715.4
2018-Feb-15 21:00N 34°29' E 138°55'917.7
2018-Feb-15 20:29N 34°24' E 138°46'918.3
2018-Feb-15 19:59N 34°19' E 138°37'918.0
2018-Feb-15 19:30N 34°15' E 138°27'917.7
2018-Feb-15 19:00N 34°11' E 138°18'917.6
2018-Feb-15 18:29N 34°06' E 138°08'918.0
2018-Feb-15 18:00N 34°02' E 137°59'816.5
2018-Feb-15 17:29N 33°57' E 137°51'  
Track history (hours):
 
Tides and Currents Weather Stations Pressure Air Temp Water Temp Dewpoint Dewpoint Depression Visibility Wind Speed Wind Dir Waves Ship Positions

Mercury

Operator: Royal Caribbean Cruises Ltd

Last reported at 2018-Feb-19 10:01 UTC. Time now 2018-Feb-19 10:18 UTC.
Position N 34°20' E 132°28'.

Length 199 m; draft 8 m.

Type: Cargo ship. MMSI: 371862000.

Date/timePositionNaut miles runAvg speedWind from/ knotsBaromVisibWave heightAir tempDewpointWater temp
2018-Feb-19 10:01N 34°20' E 132°28'0 0.1
2018-Feb-19 09:12N 34°20' E 132°28'0 0.0
2018-Feb-19 09:00N 34°20' E 132°28'0 0.2
2018-Feb-19 08:30N 34°20' E 132°28'2 0.2
2018-Feb-18 22:36N 34°21' E 132°29'0 0.6
2018-Feb-18 22:29N 34°21' E 132°29'1 2.3
2018-Feb-18 22:00N 34°20' E 132°28'3 6.1
2018-Feb-18 21:30N 34°20' E 132°25'4 8.5
2018-Feb-18 21:00N 34°16' E 132°21'5 9.9
2018-Feb-18 20:30N 34°12' E 132°20'612.0
2018-Feb-18 20:00N 34°06' E 132°24'713.1
2018-Feb-18 19:29N 34°01' E 132°29'510.6
2018-Feb-18 18:58N 33°58' E 132°34'612.0
2018-Feb-18 18:29N 33°53' E 132°31'714.1
2018-Feb-18 17:59N 33°47' E 132°26'714.0
2018-Feb-18 17:30N 33°42' E 132°21'1015.6
2018-Feb-18 16:52N 33°35' E 132°12'615.5
2018-Feb-18 16:30N 33°31' E 132°07'815.1
2018-Feb-18 16:00N 33°26' E 132°01'714.1
2018-Feb-18 15:30N 33°19' E 131°60'611.1
2018-Feb-18 14:56N 33°12' E 132°01'2 5.4
2018-Feb-18 14:30N 33°11' E 132°03'5 9.1
2018-Feb-18 13:56N 33°08' E 132°08'4 8.6
2018-Feb-18 13:29N 33°07' E 132°13'1211.3
2018-Feb-18 12:24N 32°55' E 132°18'22414.1
2018-Feb-17 20:28N 33°29' E 136°43'8916.8
2018-Feb-17 15:11N 34°12' E 138°16'813.2
2018-Feb-17 14:36N 34°16' E 138°24'312.5
2018-Feb-17 14:24N 34°17' E 138°27'612.4
2018-Feb-17 13:56N 34°20' E 138°33'612.1
2018-Feb-17 13:29N 34°23' E 138°39'612.3
2018-Feb-17 13:00N 34°25' E 138°45'611.7
2018-Feb-17 12:27N 34°28' E 138°52'512.0
2018-Feb-17 12:00N 34°31' E 138°58'612.0
2018-Feb-17 11:30N 34°34' E 139°04'713.7
2018-Feb-17 11:00N 34°37' E 139°11'713.8
2018-Feb-17 10:30N 34°37' E 139°20'713.6
2018-Feb-17 10:00N 34°37' E 139°28'714.4
2018-Feb-17 09:30N 34°43' E 139°33'815.9
2018-Feb-17 09:00N 34°50' E 139°37'816.6
2018-Feb-17 08:30N 34°58' E 139°40'816.9
2018-Feb-17 08:01N 35°06' E 139°43'613.0
2018-Feb-17 07:31N 35°12' E 139°46'510.9
2018-Feb-17 07:00N 35°18' E 139°44'612.2
2018-Feb-17 06:30N 35°23' E 139°42'5 9.1
2018-Feb-17 06:01N 35°28' E 139°42'1 1.4
2018-Feb-17 05:30N 35°28' E 139°41'0 0.0
2018-Feb-17 05:00N 35°28' E 139°41'0 0.0
2018-Feb-17 04:29N 35°28' E 139°41'0 0.0
2018-Feb-17 03:59N 35°28' E 139°41'0 0.0
2018-Feb-17 03:29N 35°28' E 139°41'0 0.0
2018-Feb-17 02:59N 35°28' E 139°41'0 0.0
2018-Feb-17 02:29N 35°28' E 139°41'0 0.0
2018-Feb-17 01:59N 35°28' E 139°41'0 0.0
2018-Feb-17 01:29N 35°28' E 139°41'0 0.0
2018-Feb-17 00:59N 35°28' E 139°41'0 0.0
2018-Feb-17 00:29N 35°28' E 139°41'0 0.0
2018-Feb-16 23:59N 35°28' E 139°41'0 0.0
2018-Feb-16 23:29N 35°28' E 139°41'0 0.0
2018-Feb-16 22:59N 35°28' E 139°41'0 0.0
2018-Feb-16 22:29N 35°28' E 139°41'0 0.0
2018-Feb-16 21:59N 35°28' E 139°41'0 0.0
2018-Feb-16 21:29N 35°28' E 139°41'0 0.0
2018-Feb-16 20:59N 35°28' E 139°41'0 0.0
2018-Feb-16 20:29N 35°28' E 139°41'0 0.0
2018-Feb-16 19:59N 35°28' E 139°41'0 0.0
2018-Feb-16 19:29N 35°28' E 139°41'0 0.0
2018-Feb-16 18:59N 35°28' E 139°41'0 0.0
2018-Feb-16 18:29N 35°28' E 139°41'0 0.0
2018-Feb-16 17:59N 35°28' E 139°41'0 0.0
2018-Feb-16 17:29N 35°28' E 139°41'0 0.0
2018-Feb-16 16:59N 35°28' E 139°41'0 0.0
2018-Feb-16 16:23N 35°28' E 139°41'0 0.0
2018-Feb-16 15:59N 35°28' E 139°41'0 0.0
2018-Feb-16 15:30N 35°28' E 139°41'0 0.0
2018-Feb-16 14:59N 35°28' E 139°41'0 0.0
2018-Feb-16 14:29N 35°28' E 139°41'0 0.0
2018-Feb-16 13:59N 35°28' E 139°41'0 0.0
2018-Feb-16 13:29N 35°28' E 139°41'0 0.0
2018-Feb-16 12:59N 35°28' E 139°41'0 0.0
2018-Feb-16 12:29N 35°28' E 139°41'0 0.0
2018-Feb-16 11:59N 35°28' E 139°41'0 0.0
2018-Feb-16 11:29N 35°28' E 139°41'0 0.0
2018-Feb-16 10:59N 35°28' E 139°41'0 0.0
2018-Feb-16 10:26N 35°28' E 139°41'0 0.0
2018-Feb-16 09:59N 35°28' E 139°41'0 0.0
2018-Feb-16 09:29N 35°28' E 139°41'0 0.0
2018-Feb-16 08:59N 35°28' E 139°41'0 0.0
2018-Feb-16 08:29N 35°28' E 139°41'0 0.0
2018-Feb-16 07:59N 35°28' E 139°41'0 0.0
2018-Feb-16 07:29N 35°28' E 139°41'0 0.0
2018-Feb-16 06:59N 35°28' E 139°41'0 0.0
2018-Feb-16 06:29N 35°28' E 139°41'0 0.0
2018-Feb-16 05:59N 35°28' E 139°41'0 0.0
2018-Feb-16 05:29N 35°28' E 139°41'1 1.7
2018-Feb-16 05:00N 35°28' E 139°42'3 5.7
2018-Feb-16 04:30N 35°26' E 139°45'2 4.5
2018-Feb-16 04:00N 35°24' E 139°46'612.3
2018-Feb-16 03:30N 35°19' E 139°44'612.6
2018-Feb-16 03:00N 35°13' E 139°47'5 9.0
2018-Feb-16 02:30N 35°08' E 139°47'3 6.7
2018-Feb-16 02:00N 35°05' E 139°45'5 9.5
2018-Feb-16 01:30N 35°01' E 139°43'611.3
2018-Feb-16 01:00N 34°55' E 139°41'611.4
2018-Feb-16 00:30N 34°50' E 139°39'611.1
2018-Feb-16 00:00N 34°45' E 139°37'4 7.9
2018-Feb-15 23:30N 34°41' E 139°34'713.4
2018-Feb-15 22:59N 34°37' E 139°28'713.9
2018-Feb-15 22:30N 34°37' E 139°20'713.8
2018-Feb-15 22:00N 34°35' E 139°11'714.3
2018-Feb-15 21:30N 34°33' E 139°03'715.4
2018-Feb-15 21:00N 34°29' E 138°55'917.7
2018-Feb-15 20:29N 34°24' E 138°46'918.3
2018-Feb-15 19:59N 34°19' E 138°37'918.0
2018-Feb-15 19:30N 34°15' E 138°27'917.7
2018-Feb-15 19:00N 34°11' E 138°18'917.6
2018-Feb-15 18:29N 34°06' E 138°08'918.0
2018-Feb-15 18:00N 34°02' E 137°59'816.5
2018-Feb-15 17:29N 33°57' E 137°51'  

Dump ship's entire track history